createdAt,value
2022-09-27T17:23:19.351Z,2.30
2022-09-27T17:24:20.334Z,3.10
2022-09-27T17:25:20.311Z,3.20
2022-09-27T17:26:20.293Z,3.20
2022-09-27T17:27:24.038Z,3.10
2022-09-27T17:28:20.361Z,2.60
2022-09-27T17:29:20.293Z,2.80
2022-09-27T17:30:20.263Z,3.20
2022-09-27T17:31:20.304Z,2.50
2022-09-27T17:32:20.245Z,3.40
2022-09-27T17:33:20.216Z,1.90
2022-09-27T17:34:20.236Z,2.00
2022-09-27T17:35:20.212Z,2.50
2022-09-27T17:36:20.192Z,1.90
2022-09-27T17:37:20.196Z,2.10
2022-09-27T17:38:20.169Z,2.50
2022-09-27T17:39:20.196Z,2.80
2022-09-27T17:40:20.268Z,3.20
2022-09-27T17:41:20.148Z,3.40
2022-09-27T17:42:20.147Z,3.00
2022-09-27T17:43:20.113Z,3.60
2022-09-27T17:44:20.144Z,3.70
2022-09-27T17:45:20.107Z,2.50
2022-09-27T17:46:20.172Z,3.00
2022-09-27T17:47:20.083Z,3.20
2022-09-27T17:48:20.154Z,3.00
2022-09-27T17:49:20.092Z,2.90
2022-09-27T17:50:20.059Z,2.10
2022-09-27T17:51:20.043Z,2.00
2022-09-27T17:52:20.027Z,2.30
2022-09-27T17:53:20.017Z,2.90
2022-09-27T17:54:20.053Z,2.40
2022-09-27T17:55:19.991Z,1.90
2022-09-27T17:56:19.984Z,1.40
2022-09-27T17:57:19.972Z,1.70
2022-09-27T17:58:19.967Z,1.60
2022-09-27T17:59:19.983Z,1.30
2022-09-27T18:00:19.945Z,1.20
2022-09-27T18:01:19.947Z,1.30
2022-09-27T18:02:20.017Z,1.20
2022-09-27T18:03:19.915Z,1.30
2022-09-27T18:04:19.925Z,1.50
2022-09-27T18:05:19.902Z,1.40
2022-09-27T18:06:19.882Z,1.00
2022-09-27T18:07:19.988Z,0.70
2022-09-27T18:08:19.882Z,1.00
2022-09-27T18:09:19.875Z,1.00
2022-09-27T18:10:19.843Z,1.50
2022-09-27T18:11:19.836Z,1.30
2022-09-27T18:12:19.825Z,2.10
2022-09-27T18:13:19.818Z,0.80
2022-09-27T18:14:19.826Z,1.80
2022-09-27T18:15:19.792Z,1.40
2022-09-27T18:16:19.855Z,1.10
2022-09-27T18:17:19.782Z,1.10
2022-09-27T18:18:19.760Z,1.00
2022-09-27T18:19:19.778Z,1.10
2022-09-27T18:20:19.751Z,1.30
2022-09-27T18:21:19.733Z,1.50
2022-09-27T18:22:19.741Z,1.50
2022-09-27T18:23:19.704Z,1.70
2022-09-27T18:24:19.717Z,1.70
2022-09-27T18:25:19.694Z,1.70
2022-09-27T18:26:19.687Z,1.40
2022-09-27T18:27:19.682Z,1.50
2022-09-27T18:28:19.669Z,1.70
2022-09-27T18:29:19.665Z,1.40
2022-09-27T18:30:19.655Z,2.10
2022-09-27T18:31:19.674Z,2.90
2022-09-27T18:32:19.629Z,4.60
2022-09-27T18:33:19.603Z,4.00
2022-09-27T18:34:19.621Z,3.50
2022-09-27T18:35:19.593Z,3.10
2022-09-27T18:36:19.571Z,3.30
2022-09-27T18:37:19.576Z,3.30
2022-09-27T18:38:19.550Z,3.70
2022-09-27T18:39:19.869Z,2.80
2022-09-27T18:40:38.114Z,3.50
2022-09-27T18:41:19.660Z,3.80
2022-09-27T18:42:19.526Z,2.80
2022-09-27T18:43:19.514Z,3.00
2022-09-27T18:44:19.720Z,2.50
2022-09-27T18:45:19.495Z,3.40
2022-09-27T18:46:35.217Z,2.50
2022-09-27T18:47:19.541Z,2.70
2022-09-27T18:48:19.477Z,2.60
2022-09-27T18:49:23.526Z,2.40
2022-09-27T18:50:19.433Z,2.10
2022-09-27T18:51:19.421Z,2.10
2022-09-27T18:52:19.418Z,2.50
2022-09-27T18:53:19.425Z,2.10
2022-09-27T18:54:19.419Z,2.40
2022-09-27T18:55:22.141Z,2.20
2022-09-27T18:56:19.385Z,1.90
2022-09-27T18:57:19.362Z,2.10
2022-09-27T18:58:19.368Z,2.40
2022-09-27T18:59:19.359Z,2.70
2022-09-27T19:00:19.324Z,2.70
2022-09-27T19:01:19.479Z,2.40
2022-09-27T19:02:19.406Z,2.50
2022-09-27T19:03:19.347Z,4.60
2022-09-27T19:04:23.476Z,5.00
2022-09-27T19:05:19.286Z,3.30
2022-09-27T19:06:19.271Z,3.20
2022-09-27T19:07:19.270Z,2.80
2022-09-27T19:08:19.254Z,3.20
2022-09-27T19:09:19.266Z,2.30
2022-09-27T19:10:19.229Z,3.10
2022-09-27T19:11:19.218Z,2.80
2022-09-27T19:12:19.201Z,3.00
2022-09-27T19:13:19.213Z,2.80
2022-09-27T19:14:19.212Z,2.40
2022-09-27T19:15:19.190Z,2.70
2022-09-27T19:16:19.303Z,2.40
2022-09-27T19:17:19.155Z,2.00
2022-09-27T19:18:19.145Z,2.30
2022-09-27T19:19:19.305Z,2.00
2022-09-27T19:20:19.137Z,2.00
2022-09-27T19:21:19.130Z,2.20
2022-09-27T19:22:19.100Z,1.90
2022-09-27T19:23:19.105Z,2.10
2022-09-27T19:24:19.137Z,1.90
2022-09-27T19:25:19.070Z,2.00
2022-09-27T19:26:19.057Z,2.10
2022-09-27T19:27:19.064Z,2.60
2022-09-27T19:28:19.039Z,3.90
2022-09-27T19:29:19.050Z,5.20
2022-09-27T19:30:19.030Z,3.20
2022-09-27T19:31:19.144Z,2.20
2022-09-27T19:32:19.010Z,2.30
2022-09-27T19:33:18.988Z,2.00
2022-09-27T19:34:19.005Z,1.90
2022-09-27T19:35:18.968Z,1.70
2022-09-27T19:36:18.974Z,1.80
2022-09-27T19:37:18.948Z,2.90
2022-09-27T19:38:18.960Z,2.70
2022-09-27T19:39:18.950Z,2.80
2022-09-27T19:40:18.981Z,2.60
2022-09-27T19:41:18.907Z,2.70
2022-09-27T19:42:18.894Z,2.50
2022-09-27T19:43:18.888Z,2.30
2022-09-27T19:44:18.902Z,2.50
2022-09-27T19:45:18.864Z,2.30
2022-09-27T19:46:18.962Z,3.40
2022-09-27T19:47:18.847Z,3.30
2022-09-27T19:48:18.843Z,3.50
2022-09-27T19:49:18.851Z,2.60
2022-09-27T19:50:18.808Z,2.40
2022-09-27T19:51:18.807Z,3.00
2022-09-27T19:52:18.793Z,3.70
2022-09-27T19:53:18.820Z,2.40
2022-09-27T19:54:18.787Z,2.10
2022-09-27T19:55:18.763Z,2.40
2022-09-27T19:56:18.761Z,3.00
2022-09-27T19:57:18.754Z,2.40
2022-09-27T19:58:18.822Z,2.20
2022-09-27T19:59:20.686Z,2.50
2022-09-27T20:00:18.705Z,1.90
2022-09-27T20:01:18.728Z,2.70
2022-09-27T20:02:18.996Z,2.80
2022-09-27T20:03:18.729Z,2.90
2022-09-27T20:04:18.693Z,2.30
2022-09-27T20:05:18.667Z,2.50
2022-09-27T20:06:18.705Z,2.40
2022-09-27T20:07:18.658Z,2.40
2022-09-27T20:08:18.646Z,2.20
2022-09-27T20:09:18.638Z,2.30
2022-09-27T20:10:18.616Z,2.80
2022-09-27T20:11:18.610Z,3.30
2022-09-27T20:12:18.594Z,3.40
2022-09-27T20:13:18.593Z,2.60
2022-09-27T20:14:18.590Z,3.30
2022-09-27T20:15:18.575Z,3.10
2022-09-27T20:16:18.694Z,3.30
2022-09-27T20:17:18.564Z,3.60
2022-09-27T20:18:18.522Z,2.40
2022-09-27T20:19:19.292Z,2.20
2022-09-27T20:20:18.502Z,2.60
2022-09-27T20:21:18.505Z,2.40
2022-09-27T20:22:18.493Z,2.20
2022-09-27T20:23:18.475Z,2.50
2022-09-27T20:24:18.502Z,2.20
2022-09-27T20:25:18.455Z,2.60
2022-09-27T20:26:18.460Z,2.80
2022-09-27T20:27:18.432Z,2.50
2022-09-27T20:28:18.607Z,2.70
2022-09-27T20:29:18.438Z,3.30
2022-09-27T20:30:18.413Z,2.90
2022-09-27T20:31:18.489Z,2.60
